IAW185 ORBI-OKKK
Flight info
| Callsign | IAW185 |
|---|---|
| Flight time | 0h 58m |
| Altitude | 41000 |
| Route | NOLDO P975 SIDAD N302 ALVAX |
| Aircraft | A333/H-SDE3GHIJ2J3J5M1RVWXY/LB2D1 |
Departure
| Time | 2026-05-06 11:14 |
|---|---|
| Airport | Baghdad International Airport / New Al Muthana Air Base (ORBI) |
Arrival
| Time | 2026-05-06 12:13 |
|---|---|
| Airport | Kuwait International Airport (OKKK) |
| Time | Latitude | Longitude | Altitude | Speed | Heading |
|---|---|---|---|---|---|
| 2026-05-06 10:55 | 33.27011 | 44.23001 | 117 ft | 0 kts | 141° |
| 2026-05-06 11:04 | 33.27025 | 44.22986 | 117 ft | 4 kts | 134° |
| 2026-05-06 11:05 | 33.27044 | 44.22963 | 117 ft | 4 kts | 136° |
| 2026-05-06 11:05 | 33.27062 | 44.22940 | 117 ft | 4 kts | 124° |
| 2026-05-06 11:05 | 33.27075 | 44.22912 | 117 ft | 4 kts | 103° |
| 2026-05-06 11:05 | 33.27075 | 44.22883 | 117 ft | 3 kts | 62° |
| 2026-05-06 11:06 | 33.27073 | 44.22879 | 117 ft | 1 kts | 60° |
| 2026-05-06 11:08 | 33.27073 | 44.22880 | 117 ft | 0 kts | 60° |
| 2026-05-06 11:08 | 33.27087 | 44.22908 | 117 ft | 9 kts | 60° |
| 2026-05-06 11:09 | 33.27133 | 44.23003 | 117 ft | 18 kts | 60° |
| 2026-05-06 11:09 | 33.27210 | 44.23158 | 117 ft | 25 kts | 62° |
| 2026-05-06 11:09 | 33.27299 | 44.23334 | 117 ft | 22 kts | 57° |
| 2026-05-06 11:09 | 33.27357 | 44.23502 | 117 ft | 23 kts | 92° |
| 2026-05-06 11:10 | 33.27268 | 44.23618 | 117 ft | 20 kts | 147° |
| 2026-05-06 11:10 | 33.27151 | 44.23715 | 117 ft | 21 kts | 144° |
| 2026-05-06 11:10 | 33.27031 | 44.23803 | 117 ft | 20 kts | 150° |
| 2026-05-06 11:10 | 33.26904 | 44.23892 | 117 ft | 22 kts | 150° |
| 2026-05-06 11:11 | 33.26764 | 44.23979 | 117 ft | 24 kts | 153° |
| 2026-05-06 11:11 | 33.26614 | 44.24073 | 117 ft | 25 kts | 152° |
| 2026-05-06 11:11 | 33.26457 | 44.24178 | 117 ft | 26 kts | 150° |
| 2026-05-06 11:11 | 33.26292 | 44.24289 | 117 ft | 28 kts | 150° |
| 2026-05-06 11:12 | 33.26122 | 44.24404 | 117 ft | 29 kts | 149° |
| 2026-05-06 11:12 | 33.25945 | 44.24528 | 117 ft | 30 kts | 150° |
| 2026-05-06 11:12 | 33.25762 | 44.24655 | 117 ft | 31 kts | 150° |
| 2026-05-06 11:12 | 33.25571 | 44.24785 | 116 ft | 32 kts | 150° |
| 2026-05-06 11:13 | 33.25389 | 44.24910 | 116 ft | 28 kts | 149° |
| 2026-05-06 11:13 | 33.25231 | 44.25025 | 116 ft | 24 kts | 139° |
| 2026-05-06 11:13 | 33.25226 | 44.25153 | 116 ft | 15 kts | 65° |
| 2026-05-06 11:13 | 33.25306 | 44.25222 | 115 ft | 16 kts | 352° |
| 2026-05-06 11:14 | 33.25350 | 44.25197 | 115 ft | 16 kts | 331° |
| 2026-05-06 11:14 | 33.25672 | 44.24976 | 117 ft | 92 kts | 330° |
| 2026-05-06 11:14 | 33.26435 | 44.24443 | 141 ft | 158 kts | 328° |
| 2026-05-06 11:14 | 33.27413 | 44.23786 | 945 ft | 164 kts | 330° |
| 2026-05-06 11:15 | 33.28444 | 44.23091 | 1810 ft | 179 kts | 331° |
| 2026-05-06 11:15 | 33.29784 | 44.22766 | 2311 ft | 223 kts | 8° |
| 2026-05-06 11:15 | 33.31233 | 44.23695 | 2910 ft | 254 kts | 48° |
| 2026-05-06 11:15 | 33.31970 | 44.25623 | 3872 ft | 263 kts | 84° |
| 2026-05-06 11:16 | 33.31666 | 44.27764 | 4800 ft | 267 kts | 118° |
| 2026-05-06 11:16 | 33.30400 | 44.29364 | 5693 ft | 271 kts | 151° |
| 2026-05-06 11:16 | 33.28614 | 44.30107 | 6618 ft | 275 kts | 168° |
| 2026-05-06 11:16 | 33.26726 | 44.30562 | 7533 ft | 279 kts | 168° |
| 2026-05-06 11:17 | 33.24913 | 44.31348 | 8404 ft | 285 kts | 146° |
| 2026-05-06 11:17 | 33.23530 | 44.33061 | 9291 ft | 291 kts | 124° |
| 2026-05-06 11:17 | 33.22563 | 44.35208 | 10156 ft | 296 kts | 114° |
| 2026-05-06 11:17 | 33.21770 | 44.37572 | 10613 ft | 316 kts | 111° |
| 2026-05-06 11:18 | 33.20981 | 44.40122 | 10924 ft | 337 kts | 111° |
| 2026-05-06 11:18 | 33.20115 | 44.42793 | 11427 ft | 349 kts | 112° |
| 2026-05-06 11:18 | 33.19168 | 44.45488 | 12092 ft | 355 kts | 114° |
| 2026-05-06 11:18 | 33.18152 | 44.48193 | 12778 ft | 359 kts | 115° |
| 2026-05-06 11:19 | 33.17100 | 44.50877 | 13427 ft | 364 kts | 116° |
| 2026-05-06 11:19 | 33.16000 | 44.53620 | 14059 ft | 368 kts | 116° |
| 2026-05-06 11:19 | 33.14875 | 44.56397 | 14668 ft | 372 kts | 116° |
| 2026-05-06 11:19 | 33.13742 | 44.59186 | 15252 ft | 376 kts | 116° |
| 2026-05-06 11:20 | 33.12596 | 44.62010 | 15807 ft | 380 kts | 116° |
| 2026-05-06 11:20 | 33.11443 | 44.64857 | 16343 ft | 383 kts | 116° |
| 2026-05-06 11:20 | 33.10278 | 44.67738 | 16851 ft | 387 kts | 116° |
| 2026-05-06 11:20 | 33.09106 | 44.70640 | 17336 ft | 390 kts | 116° |
| 2026-05-06 11:21 | 33.07924 | 44.73566 | 17800 ft | 394 kts | 116° |
| 2026-05-06 11:21 | 33.06743 | 44.76489 | 18241 ft | 397 kts | 116° |
| 2026-05-06 11:21 | 33.05537 | 44.79471 | 18665 ft | 400 kts | 116° |
| 2026-05-06 11:21 | 33.04321 | 44.82473 | 19067 ft | 403 kts | 116° |
| 2026-05-06 11:22 | 33.03097 | 44.85495 | 19452 ft | 406 kts | 116° |
| 2026-05-06 11:22 | 33.01864 | 44.88535 | 19819 ft | 409 kts | 116° |
| 2026-05-06 11:22 | 33.00623 | 44.91593 | 20169 ft | 411 kts | 116° |
| 2026-05-06 11:22 | 32.99372 | 44.94670 | 20505 ft | 414 kts | 116° |
| 2026-05-06 11:23 | 32.98113 | 44.97765 | 20831 ft | 417 kts | 116° |
| 2026-05-06 11:23 | 32.96842 | 45.00884 | 21145 ft | 419 kts | 116° |
| 2026-05-06 11:23 | 32.95568 | 45.04011 | 21445 ft | 421 kts | 116° |
| 2026-05-06 11:23 | 32.94283 | 45.07160 | 21733 ft | 424 kts | 116° |
| 2026-05-06 11:24 | 32.92994 | 45.10320 | 22011 ft | 426 kts | 116° |
| 2026-05-06 11:24 | 32.91695 | 45.13500 | 22280 ft | 428 kts | 116° |
| 2026-05-06 11:24 | 32.90391 | 45.16690 | 22537 ft | 430 kts | 116° |
| 2026-05-06 11:24 | 32.89097 | 45.19852 | 22783 ft | 432 kts | 116° |
| 2026-05-06 11:25 | 32.87777 | 45.23074 | 23023 ft | 434 kts | 116° |
| 2026-05-06 11:25 | 32.86446 | 45.26320 | 23254 ft | 436 kts | 116° |
| 2026-05-06 11:25 | 32.85112 | 45.29568 | 23478 ft | 437 kts | 116° |
| 2026-05-06 11:25 | 32.83772 | 45.32832 | 23693 ft | 439 kts | 116° |
| 2026-05-06 11:26 | 32.82238 | 45.35971 | 23891 ft | 440 kts | 128° |
| 2026-05-06 11:26 | 32.80243 | 45.38737 | 24095 ft | 442 kts | 134° |
| 2026-05-06 11:26 | 32.78045 | 45.41301 | 24288 ft | 443 kts | 137° |
| 2026-05-06 11:26 | 32.75778 | 45.43729 | 24471 ft | 445 kts | 139° |
| 2026-05-06 11:27 | 32.73438 | 45.46170 | 24651 ft | 446 kts | 139° |
| 2026-05-06 11:27 | 32.71109 | 45.48610 | 24823 ft | 448 kts | 139° |
| 2026-05-06 11:27 | 32.68782 | 45.51086 | 24989 ft | 449 kts | 138° |
| 2026-05-06 11:27 | 32.66470 | 45.53583 | 25149 ft | 450 kts | 138° |
| 2026-05-06 11:28 | 32.64163 | 45.56103 | 25303 ft | 452 kts | 137° |
| 2026-05-06 11:28 | 32.61852 | 45.58646 | 25450 ft | 453 kts | 137° |
| 2026-05-06 11:28 | 32.59546 | 45.61199 | 25593 ft | 454 kts | 137° |
| 2026-05-06 11:28 | 32.57236 | 45.63760 | 25731 ft | 455 kts | 137° |
| 2026-05-06 11:29 | 32.54948 | 45.66297 | 25863 ft | 456 kts | 137° |
| 2026-05-06 11:29 | 32.52622 | 45.68873 | 25994 ft | 458 kts | 137° |
| 2026-05-06 11:29 | 32.50294 | 45.71446 | 26123 ft | 459 kts | 137° |
| 2026-05-06 11:29 | 32.47958 | 45.74025 | 26248 ft | 460 kts | 137° |
| 2026-05-06 11:30 | 32.45612 | 45.76612 | 26371 ft | 460 kts | 137° |
| 2026-05-06 11:30 | 32.43265 | 45.79196 | 26616 ft | 458 kts | 137° |
| 2026-05-06 11:30 | 32.40931 | 45.81766 | 26871 ft | 456 kts | 137° |
| 2026-05-06 11:30 | 32.38611 | 45.84317 | 27125 ft | 454 kts | 137° |
| 2026-05-06 11:31 | 32.36296 | 45.86859 | 27380 ft | 452 kts | 137° |
| 2026-05-06 11:31 | 32.34019 | 45.89352 | 27630 ft | 450 kts | 137° |
| 2026-05-06 11:31 | 32.31719 | 45.91867 | 27885 ft | 448 kts | 137° |
| 2026-05-06 11:31 | 32.29425 | 45.94372 | 28139 ft | 447 kts | 137° |
| 2026-05-06 11:32 | 32.27144 | 45.96861 | 28392 ft | 445 kts | 137° |
| 2026-05-06 11:32 | 32.24873 | 45.99339 | 28646 ft | 443 kts | 137° |
| 2026-05-06 11:32 | 32.22608 | 46.01808 | 28899 ft | 442 kts | 137° |
| 2026-05-06 11:32 | 32.20357 | 46.04260 | 29152 ft | 440 kts | 137° |
| 2026-05-06 11:33 | 32.18108 | 46.06709 | 29404 ft | 438 kts | 137° |
| 2026-05-06 11:33 | 32.15895 | 46.09118 | 29653 ft | 437 kts | 137° |
| 2026-05-06 11:33 | 32.13660 | 46.11548 | 29906 ft | 435 kts | 137° |
| 2026-05-06 11:33 | 32.11438 | 46.13963 | 30158 ft | 434 kts | 137° |
| 2026-05-06 11:34 | 32.09211 | 46.16381 | 30411 ft | 432 kts | 137° |
| 2026-05-06 11:34 | 32.07028 | 46.18750 | 30661 ft | 430 kts | 137° |
| 2026-05-06 11:34 | 32.04830 | 46.21133 | 30913 ft | 429 kts | 137° |
| 2026-05-06 11:34 | 32.02634 | 46.23513 | 31166 ft | 427 kts | 137° |
| 2026-05-06 11:35 | 32.00454 | 46.25874 | 31418 ft | 425 kts | 137° |
| 2026-05-06 11:35 | 31.98984 | 46.27465 | 31588 ft | 424 kts | 137° |
| 2026-05-06 11:35 | 31.96116 | 46.30566 | 31922 ft | 421 kts | 137° |
| 2026-05-06 11:35 | 31.93959 | 46.32897 | 32172 ft | 419 kts | 138° |
| 2026-05-06 11:36 | 31.92536 | 46.34434 | 32337 ft | 418 kts | 138° |
| 2026-05-06 11:36 | 31.90389 | 46.36752 | 32588 ft | 416 kts | 138° |
| 2026-05-06 11:36 | 31.88261 | 46.39047 | 32838 ft | 414 kts | 138° |
| 2026-05-06 11:36 | 31.85452 | 46.42075 | 33170 ft | 411 kts | 138° |
| 2026-05-06 11:37 | 31.83345 | 46.44344 | 33419 ft | 409 kts | 138° |
| 2026-05-06 11:37 | 31.81928 | 46.45870 | 33589 ft | 408 kts | 138° |
| 2026-05-06 11:37 | 31.79865 | 46.48090 | 33835 ft | 406 kts | 138° |
| 2026-05-06 11:37 | 31.77762 | 46.50351 | 34088 ft | 403 kts | 138° |
| 2026-05-06 11:38 | 31.75715 | 46.52551 | 34336 ft | 401 kts | 138° |
| 2026-05-06 11:38 | 31.73658 | 46.54760 | 34586 ft | 399 kts | 138° |
| 2026-05-06 11:38 | 31.71610 | 46.56958 | 34836 ft | 396 kts | 138° |
| 2026-05-06 11:38 | 31.69581 | 46.59134 | 35085 ft | 394 kts | 138° |
| 2026-05-06 11:39 | 31.67560 | 46.61301 | 35336 ft | 391 kts | 138° |
| 2026-05-06 11:39 | 31.65559 | 46.63444 | 35585 ft | 388 kts | 138° |
| 2026-05-06 11:39 | 31.63568 | 46.65576 | 35835 ft | 385 kts | 138° |
| 2026-05-06 11:39 | 31.61618 | 46.67662 | 36080 ft | 382 kts | 138° |
| 2026-05-06 11:40 | 31.59662 | 46.69753 | 36328 ft | 379 kts | 138° |
| 2026-05-06 11:40 | 31.57720 | 46.71830 | 36577 ft | 376 kts | 138° |
| 2026-05-06 11:40 | 31.55794 | 46.73887 | 36826 ft | 372 kts | 138° |
| 2026-05-06 11:40 | 31.53882 | 46.75928 | 37060 ft | 369 kts | 138° |
| 2026-05-06 11:41 | 31.51974 | 46.77963 | 37155 ft | 370 kts | 138° |
| 2026-05-06 11:41 | 31.48133 | 46.82055 | 37244 ft | 375 kts | 138° |
| 2026-05-06 11:42 | 31.44269 | 46.86168 | 37319 ft | 380 kts | 138° |
| 2026-05-06 11:42 | 31.40326 | 46.90360 | 37392 ft | 384 kts | 138° |
| 2026-05-06 11:43 | 31.36359 | 46.94574 | 37464 ft | 389 kts | 138° |
| 2026-05-06 11:43 | 31.32307 | 46.98881 | 37532 ft | 393 kts | 138° |
| 2026-05-06 11:44 | 31.26215 | 47.05357 | 37630 ft | 399 kts | 138° |
| 2026-05-06 11:44 | 31.22086 | 47.09739 | 37708 ft | 402 kts | 138° |
| 2026-05-06 11:45 | 31.19992 | 47.11959 | 37495 ft | 411 kts | 138° |
| 2026-05-06 11:45 | 31.17849 | 47.14230 | 37240 ft | 420 kts | 138° |
| 2026-05-06 11:45 | 31.15659 | 47.16548 | 36983 ft | 429 kts | 138° |
| 2026-05-06 11:45 | 31.13422 | 47.18914 | 36726 ft | 437 kts | 138° |
| 2026-05-06 11:46 | 31.11147 | 47.21319 | 36470 ft | 445 kts | 138° |
| 2026-05-06 11:46 | 31.08832 | 47.23766 | 36213 ft | 453 kts | 138° |
| 2026-05-06 11:46 | 31.06508 | 47.26220 | 35961 ft | 460 kts | 138° |
| 2026-05-06 11:46 | 31.04113 | 47.28747 | 35703 ft | 467 kts | 138° |
| 2026-05-06 11:47 | 31.01680 | 47.31312 | 35446 ft | 474 kts | 138° |
| 2026-05-06 11:47 | 30.99214 | 47.33911 | 35189 ft | 480 kts | 138° |
| 2026-05-06 11:47 | 30.96721 | 47.36536 | 34932 ft | 486 kts | 138° |
| 2026-05-06 11:47 | 30.94191 | 47.39199 | 34675 ft | 492 kts | 138° |
| 2026-05-06 11:48 | 30.91638 | 47.41883 | 34417 ft | 497 kts | 138° |
| 2026-05-06 11:48 | 30.89057 | 47.44594 | 34160 ft | 502 kts | 138° |
| 2026-05-06 11:48 | 30.86450 | 47.47332 | 33903 ft | 507 kts | 138° |
| 2026-05-06 11:48 | 30.83824 | 47.50086 | 33647 ft | 508 kts | 138° |
| 2026-05-06 11:49 | 30.81229 | 47.52804 | 33398 ft | 508 kts | 138° |
| 2026-05-06 11:49 | 30.78601 | 47.55554 | 33146 ft | 508 kts | 138° |
| 2026-05-06 11:49 | 30.75969 | 47.58305 | 32894 ft | 508 kts | 138° |
| 2026-05-06 11:49 | 30.73334 | 47.61057 | 32642 ft | 508 kts | 138° |
| 2026-05-06 11:50 | 30.70706 | 47.63800 | 32390 ft | 508 kts | 138° |
| 2026-05-06 11:50 | 30.68069 | 47.66549 | 32137 ft | 509 kts | 138° |
| 2026-05-06 11:50 | 30.65430 | 47.69299 | 31885 ft | 509 kts | 138° |
| 2026-05-06 11:50 | 30.62799 | 47.72038 | 31633 ft | 509 kts | 138° |
| 2026-05-06 11:51 | 30.60165 | 47.74779 | 31382 ft | 507 kts | 138° |
| 2026-05-06 11:51 | 30.57541 | 47.77507 | 31131 ft | 505 kts | 138° |
| 2026-05-06 11:51 | 30.54926 | 47.80225 | 30882 ft | 503 kts | 138° |
| 2026-05-06 11:51 | 30.52320 | 47.82929 | 30633 ft | 500 kts | 138° |
| 2026-05-06 11:52 | 30.49761 | 47.85584 | 30387 ft | 498 kts | 138° |
| 2026-05-06 11:52 | 30.47180 | 47.88260 | 30137 ft | 496 kts | 138° |
| 2026-05-06 11:52 | 30.44614 | 47.90917 | 29888 ft | 493 kts | 139° |
| 2026-05-06 11:52 | 30.42059 | 47.93562 | 29638 ft | 491 kts | 139° |
| 2026-05-06 11:53 | 30.39513 | 47.96195 | 29389 ft | 489 kts | 139° |
| 2026-05-06 11:53 | 30.36968 | 47.98825 | 29138 ft | 486 kts | 139° |
| 2026-05-06 11:53 | 30.34451 | 48.01424 | 28889 ft | 484 kts | 139° |
| 2026-05-06 11:53 | 30.31971 | 48.03983 | 28643 ft | 482 kts | 139° |
| 2026-05-06 11:54 | 30.29472 | 48.06560 | 28394 ft | 480 kts | 139° |
| 2026-05-06 11:54 | 30.26986 | 48.09123 | 28144 ft | 477 kts | 139° |
| 2026-05-06 11:54 | 30.24509 | 48.11673 | 27895 ft | 475 kts | 139° |
| 2026-05-06 11:54 | 30.22046 | 48.14208 | 27646 ft | 473 kts | 139° |
| 2026-05-06 11:55 | 30.19595 | 48.16728 | 27397 ft | 471 kts | 139° |
| 2026-05-06 11:55 | 30.17153 | 48.19238 | 27147 ft | 469 kts | 139° |
| 2026-05-06 11:55 | 30.14719 | 48.21738 | 26898 ft | 466 kts | 139° |
| 2026-05-06 11:55 | 30.12291 | 48.24229 | 26648 ft | 464 kts | 139° |
| 2026-05-06 11:56 | 30.09883 | 48.26699 | 26399 ft | 462 kts | 139° |
| 2026-05-06 11:56 | 30.07485 | 48.29157 | 26150 ft | 460 kts | 139° |
| 2026-05-06 11:56 | 30.05129 | 48.31570 | 25904 ft | 458 kts | 139° |
| 2026-05-06 11:56 | 30.02751 | 48.34004 | 25655 ft | 456 kts | 139° |
| 2026-05-06 11:57 | 30.00382 | 48.36426 | 25405 ft | 454 kts | 139° |
| 2026-05-06 11:57 | 29.98024 | 48.38836 | 25155 ft | 452 kts | 139° |
| 2026-05-06 11:57 | 29.95680 | 48.41231 | 24907 ft | 449 kts | 139° |
| 2026-05-06 11:57 | 29.93317 | 48.43583 | 24657 ft | 447 kts | 142° |
| 2026-05-06 11:58 | 29.90756 | 48.45606 | 24407 ft | 445 kts | 150° |
| 2026-05-06 11:58 | 29.88003 | 48.47126 | 24160 ft | 442 kts | 160° |
| 2026-05-06 11:58 | 29.85057 | 48.48087 | 23911 ft | 440 kts | 170° |
| 2026-05-06 11:58 | 29.82021 | 48.48425 | 23661 ft | 437 kts | 180° |
| 2026-05-06 11:59 | 29.78993 | 48.48217 | 23413 ft | 435 kts | 186° |
| 2026-05-06 11:59 | 29.75993 | 48.47798 | 23163 ft | 433 kts | 188° |
| 2026-05-06 11:59 | 29.73018 | 48.47285 | 22913 ft | 431 kts | 189° |
| 2026-05-06 11:59 | 29.70061 | 48.46738 | 22664 ft | 429 kts | 189° |
| 2026-05-06 12:00 | 29.67192 | 48.46008 | 22388 ft | 417 kts | 196° |
| 2026-05-06 12:00 | 29.64437 | 48.44992 | 21664 ft | 415 kts | 199° |
| 2026-05-06 12:00 | 29.61720 | 48.43888 | 20923 ft | 413 kts | 200° |
| 2026-05-06 12:00 | 29.59024 | 48.42763 | 20260 ft | 409 kts | 200° |
| 2026-05-06 12:01 | 29.56368 | 48.41645 | 19642 ft | 404 kts | 200° |
| 2026-05-06 12:01 | 29.53764 | 48.40546 | 19334 ft | 392 kts | 200° |
| 2026-05-06 12:01 | 29.51248 | 48.39484 | 19120 ft | 378 kts | 200° |
| 2026-05-06 12:01 | 29.48858 | 48.38475 | 18932 ft | 364 kts | 200° |
| 2026-05-06 12:02 | 29.46513 | 48.37484 | 18714 ft | 353 kts | 200° |
| 2026-05-06 12:02 | 29.44225 | 48.36518 | 18351 ft | 346 kts | 200° |
| 2026-05-06 12:02 | 29.41976 | 48.35568 | 17920 ft | 343 kts | 200° |
| 2026-05-06 12:02 | 29.39746 | 48.34627 | 17470 ft | 340 kts | 200° |
| 2026-05-06 12:03 | 29.37533 | 48.33694 | 17017 ft | 337 kts | 200° |
| 2026-05-06 12:03 | 29.35344 | 48.32770 | 16565 ft | 334 kts | 200° |
| 2026-05-06 12:03 | 29.33160 | 48.31850 | 16062 ft | 333 kts | 200° |
| 2026-05-06 12:03 | 29.30965 | 48.30925 | 15209 ft | 341 kts | 200° |
| 2026-05-06 12:04 | 29.28713 | 48.29977 | 14088 ft | 356 kts | 200° |
| 2026-05-06 12:04 | 29.26347 | 48.28981 | 12934 ft | 368 kts | 200° |
| 2026-05-06 12:04 | 29.23912 | 48.27956 | 11783 ft | 377 kts | 200° |
| 2026-05-06 12:04 | 29.21427 | 48.26912 | 10634 ft | 383 kts | 200° |
| 2026-05-06 12:05 | 29.18909 | 48.25854 | 9484 ft | 388 kts | 200° |
| 2026-05-06 12:05 | 29.16361 | 48.24784 | 8325 ft | 388 kts | 200° |
| 2026-05-06 12:05 | 29.13885 | 48.23745 | 7207 ft | 368 kts | 200° |
| 2026-05-06 12:05 | 29.11562 | 48.22702 | 6117 ft | 348 kts | 208° |
| 2026-05-06 12:06 | 29.09760 | 48.20978 | 5015 ft | 334 kts | 233° |
| 2026-05-06 12:06 | 29.08824 | 48.18649 | 3920 ft | 324 kts | 258° |
| 2026-05-06 12:06 | 29.08615 | 48.16152 | 2869 ft | 305 kts | 266° |
| 2026-05-06 12:06 | 29.08488 | 48.13824 | 2056 ft | 281 kts | 264° |
| 2026-05-06 12:07 | 29.08292 | 48.11699 | 1554 ft | 257 kts | 262° |
| 2026-05-06 12:07 | 29.08056 | 48.09784 | 1349 ft | 229 kts | 261° |
| 2026-05-06 12:07 | 29.07814 | 48.08098 | 1323 ft | 202 kts | 259° |
| 2026-05-06 12:07 | 29.07583 | 48.06608 | 1317 ft | 179 kts | 259° |
| 2026-05-06 12:08 | 29.07371 | 48.05315 | 1318 ft | 154 kts | 259° |
| 2026-05-06 12:08 | 29.07273 | 48.04177 | 1304 ft | 136 kts | 271° |
| 2026-05-06 12:08 | 29.07466 | 48.03133 | 1316 ft | 137 kts | 292° |
| 2026-05-06 12:08 | 29.08066 | 48.02272 | 1318 ft | 141 kts | 317° |
| 2026-05-06 12:09 | 29.08868 | 48.01642 | 1305 ft | 138 kts | 330° |
| 2026-05-06 12:09 | 29.09732 | 48.01155 | 1316 ft | 141 kts | 334° |
| 2026-05-06 12:09 | 29.10627 | 48.00683 | 1307 ft | 140 kts | 334° |
| 2026-05-06 12:09 | 29.11495 | 48.00222 | 1311 ft | 138 kts | 334° |
| 2026-05-06 12:10 | 29.12372 | 47.99753 | 1311 ft | 142 kts | 334° |
| 2026-05-06 12:10 | 29.13252 | 47.99283 | 1304 ft | 138 kts | 334° |
| 2026-05-06 12:10 | 29.14137 | 47.98811 | 1284 ft | 142 kts | 334° |
| 2026-05-06 12:10 | 29.15027 | 47.98337 | 1107 ft | 139 kts | 334° |
| 2026-05-06 12:11 | 29.15893 | 47.97873 | 929 ft | 136 kts | 333° |
| 2026-05-06 12:11 | 29.16748 | 47.97420 | 786 ft | 135 kts | 334° |
| 2026-05-06 12:11 | 29.17610 | 47.96977 | 575 ft | 135 kts | 334° |
| 2026-05-06 12:11 | 29.18469 | 47.96537 | 374 ft | 135 kts | 336° |
| 2026-05-06 12:12 | 29.19317 | 47.96082 | 241 ft | 134 kts | 334° |
| 2026-05-06 12:12 | 29.20094 | 47.95648 | 211 ft | 111 kts | 335° |
| 2026-05-06 12:12 | 29.20712 | 47.95311 | 217 ft | 88 kts | 337° |
| 2026-05-06 12:12 | 29.21225 | 47.95059 | 216 ft | 67 kts | 350° |
| 2026-05-06 12:13 | 29.21417 | 47.95061 | 218 ft | 0 kts | 5° |
| 2026-05-06 12:13 | 29.21427 | 47.95062 | 219 ft | 6 kts | 5° |
| 2026-05-06 12:14 | 29.21502 | 47.95070 | 219 ft | 17 kts | 5° |
| 2026-05-06 12:14 | 29.21645 | 47.95049 | 219 ft | 22 kts | 349° |
| 2026-05-06 12:14 | 29.21779 | 47.94987 | 220 ft | 21 kts | 334° |
| 2026-05-06 12:14 | 29.21918 | 47.94955 | 215 ft | 20 kts | 4° |
| 2026-05-06 12:15 | 29.21977 | 47.95000 | 212 ft | 6 kts | 65° |
| 2026-05-06 12:15 | 29.22004 | 47.95070 | 210 ft | 13 kts | 67° |
| 2026-05-06 12:15 | 29.22047 | 47.95199 | 204 ft | 21 kts | 66° |
| 2026-05-06 12:15 | 29.22120 | 47.95378 | 194 ft | 28 kts | 65° |
| 2026-05-06 12:16 | 29.22208 | 47.95604 | 181 ft | 34 kts | 71° |
| 2026-05-06 12:16 | 29.22307 | 47.95859 | 170 ft | 35 kts | 65° |
| 2026-05-06 12:16 | 29.22403 | 47.96097 | 170 ft | 30 kts | 64° |
| 2026-05-06 12:16 | 29.22469 | 47.96278 | 182 ft | 19 kts | 62° |
| 2026-05-06 12:17 | 29.22521 | 47.96387 | 190 ft | 15 kts | 60° |
| 2026-05-06 12:17 | 29.22586 | 47.96508 | 200 ft | 22 kts | 55° |
| 2026-05-06 12:17 | 29.22733 | 47.96564 | 208 ft | 26 kts | 343° |
| 2026-05-06 12:17 | 29.22911 | 47.96491 | 212 ft | 29 kts | 354° |
| 2026-05-06 12:18 | 29.23036 | 47.96567 | 218 ft | 16 kts | 73° |
| 2026-05-06 12:18 | 29.23083 | 47.96688 | 219 ft | 18 kts | 64° |
| 2026-05-06 12:18 | 29.23143 | 47.96816 | 219 ft | 19 kts | 45° |
| 2026-05-06 12:18 | 29.23271 | 47.96821 | 215 ft | 18 kts | 336° |
| 2026-05-06 12:19 | 29.23373 | 47.96758 | 216 ft | 17 kts | 332° |
| 2026-05-06 12:19 | 29.23492 | 47.96691 | 214 ft | 21 kts | 335° |
| 2026-05-06 12:19 | 29.23634 | 47.96646 | 212 ft | 19 kts | 9° |
| 2026-05-06 12:19 | 29.23690 | 47.96722 | 206 ft | 12 kts | 84° |
| 2026-05-06 12:20 | 29.23721 | 47.96841 | 195 ft | 12 kts | 66° |
| 2026-05-06 12:20 | 29.23798 | 47.96882 | 190 ft | 13 kts | 345° |